createdAt,value
2022-11-25T00:00:02.195Z,1.7
2022-11-25T00:20:03.117Z,1.9
2022-11-25T00:40:02.361Z,2
2022-11-25T01:00:02.763Z,1.9
2022-11-25T01:20:02.791Z,1.9
2022-11-25T01:40:02.089Z,2
2022-11-25T02:00:02.578Z,1.8
2022-11-25T02:20:02.448Z,1.9
2022-11-25T02:40:03.047Z,1.9
2022-11-25T03:00:02.539Z,1.9
2022-11-25T03:20:02.365Z,1.9
2022-11-25T03:40:02.723Z,1.9
2022-11-25T04:00:03.182Z,1.9
2022-11-25T04:20:03.113Z,2
2022-11-25T04:40:02.721Z,2.1
2022-11-25T05:00:03.272Z,2.1
2022-11-25T05:20:03.136Z,2.1
2022-11-25T05:40:02.809Z,2.2
2022-11-25T06:00:02.093Z,2.1
2022-11-25T06:20:02.985Z,2
2022-11-25T06:40:02.548Z,2.1
2022-11-25T07:00:02.832Z,2.3
2022-11-25T07:20:02.474Z,2.2
2022-11-25T07:40:03.109Z,2.3
2022-11-25T08:00:02.665Z,2.3
2022-11-25T08:20:02.158Z,2.3
2022-11-25T08:40:02.790Z,2.5
2022-11-25T09:00:02.416Z,2.8
2022-11-25T09:20:02.376Z,2.8
2022-11-25T09:40:02.748Z,3
2022-11-25T10:00:03.209Z,3.1
2022-11-25T10:20:02.963Z,3.3
2022-11-25T10:40:02.464Z,3.5
2022-11-25T11:00:02.860Z,3.6
2022-11-25T11:20:02.731Z,3.7
2022-11-25T11:40:03.068Z,3.9
2022-11-25T12:00:02.648Z,3.9
2022-11-25T12:20:02.578Z,3.9
2022-11-25T12:40:03.199Z,3.9
2022-11-25T13:00:25.351Z,3.9
2022-11-25T13:20:03.247Z,3.9
2022-11-25T13:40:02.734Z,3.8
2022-11-25T14:00:03.406Z,4
2022-11-25T14:20:03.202Z,4
2022-11-25T14:40:02.820Z,4.1
2022-11-25T15:00:02.402Z,3.8
2022-11-25T15:20:02.459Z,3.8
2022-11-25T15:40:02.939Z,3.6
2022-11-25T16:00:02.454Z,3.7
2022-11-25T16:20:03.009Z,3.7
2022-11-25T16:40:02.520Z,3.7
2022-11-25T17:00:03.225Z,3.5
2022-11-25T17:20:03.219Z,3.5
2022-11-25T17:40:02.753Z,3.6
2022-11-25T18:00:03.295Z,3.3
2022-11-25T18:20:02.874Z,3.4
2022-11-25T18:40:02.829Z,3.4
2022-11-25T19:00:31.474Z,3.4
2022-11-25T19:20:03.108Z,3.3
2022-11-25T19:40:02.438Z,3.3
2022-11-25T20:00:03.019Z,3.3
2022-11-25T20:20:02.522Z,3.3
2022-11-25T20:40:03.379Z,3.3
2022-11-25T21:00:02.757Z,3.3
2022-11-25T21:20:02.623Z,3.3
2022-11-25T21:40:03.013Z,3.4
2022-11-25T22:00:02.612Z,3.3
2022-11-25T22:20:02.447Z,3.3
2022-11-25T22:40:02.818Z,3.4
2022-11-25T23:00:02.274Z,3.5
2022-11-25T23:20:03.188Z,3.5
2022-11-25T23:40:02.804Z,3.6
